sensor_id;sensor_type;location;lat;lon;timestamp;temperature;humidity
62555;DHT22;48610;52.144;8.624;2024-02-04T00:00:46;11.20;99.90
62555;DHT22;48610;52.144;8.624;2024-02-04T00:03:47;11.10;99.90
62555;DHT22;48610;52.144;8.624;2024-02-04T00:06:47;11.10;99.90
62555;DHT22;48610;52.144;8.624;2024-02-04T00:09:48;11.00;99.90
62555;DHT22;48610;52.144;8.624;2024-02-04T00:12:48;11.10;99.90
62555;DHT22;48610;52.144;8.624;2024-02-04T00:15:49;11.10;99.90
62555;DHT22;48610;52.144;8.624;2024-02-04T00:18:49;11.10;99.90
62555;DHT22;48610;52.144;8.624;2024-02-04T00:21:50;11.00;99.90
62555;DHT22;48610;52.144;8.624;2024-02-04T00:24:51;11.20;99.90
62555;DHT22;48610;52.144;8.624;2024-02-04T00:27:51;11.20;99.90
62555;DHT22;48610;52.144;8.624;2024-02-04T00:30:52;11.10;99.90
62555;DHT22;48610;52.144;8.624;2024-02-04T00:33:55;11.00;99.90
62555;DHT22;48610;52.144;8.624;2024-02-04T00:36:56;11.00;99.90
62555;DHT22;48610;52.144;8.624;2024-02-04T00:39:56;11.00;99.90
62555;DHT22;48610;52.144;8.624;2024-02-04T00:42:57;11.10;99.90
62555;DHT22;48610;52.144;8.624;2024-02-04T00:45:57;11.30;99.90
62555;DHT22;48610;52.144;8.624;2024-02-04T00:49:00;11.30;99.90
62555;DHT22;48610;52.144;8.624;2024-02-04T00:52:01;11.20;99.90
62555;DHT22;48610;52.144;8.624;2024-02-04T00:55:01;11.20;99.90
62555;DHT22;48610;52.144;8.624;2024-02-04T00:58:02;11.10;99.90
62555;DHT22;48610;52.144;8.624;2024-02-04T01:01:03;11.00;99.90
62555;DHT22;48610;52.144;8.624;2024-02-04T01:04:04;11.00;99.90
62555;DHT22;48610;52.144;8.624;2024-02-04T01:07:05;10.80;99.90
62555;DHT22;48610;52.144;8.624;2024-02-04T01:10:06;10.80;99.90
62555;DHT22;48610;52.144;8.624;2024-02-04T01:13:06;10.80;99.90
62555;DHT22;48610;52.144;8.624;2024-02-04T01:16:07;10.70;99.90
62555;DHT22;48610;52.144;8.624;2024-02-04T01:19:07;10.70;99.90
62555;DHT22;48610;52.144;8.624;2024-02-04T01:22:08;10.70;99.90
62555;DHT22;48610;52.144;8.624;2024-02-04T01:25:08;10.70;99.90
62555;DHT22;48610;52.144;8.624;2024-02-04T01:28:09;10.80;99.90
62555;DHT22;48610;52.144;8.624;2024-02-04T01:31:10;10.90;99.90
62555;DHT22;48610;52.144;8.624;2024-02-04T01:34:11;10.90;99.90
62555;DHT22;48610;52.144;8.624;2024-02-04T01:37:11;10.90;99.90
62555;DHT22;48610;52.144;8.624;2024-02-04T01:40:12;11.00;99.90
62555;DHT22;48610;52.144;8.624;2024-02-04T01:43:13;10.90;99.90
62555;DHT22;48610;52.144;8.624;2024-02-04T01:46:13;10.90;99.90
62555;DHT22;48610;52.144;8.624;2024-02-04T01:49:14;10.90;99.90
62555;DHT22;48610;52.144;8.624;2024-02-04T01:52:15;10.80;99.90
62555;DHT22;48610;52.144;8.624;2024-02-04T01:55:16;10.80;99.90
62555;DHT22;48610;52.144;8.624;2024-02-04T01:58:17;10.60;99.90
62555;DHT22;48610;52.144;8.624;2024-02-04T02:01:17;10.60;99.90
62555;DHT22;48610;52.144;8.624;2024-02-04T02:04:18;10.60;99.90
62555;DHT22;48610;52.144;8.624;2024-02-04T02:07:19;10.60;99.90
62555;DHT22;48610;52.144;8.624;2024-02-04T02:10:22;10.60;99.90
62555;DHT22;48610;52.144;8.624;2024-02-04T02:13:27;10.80;99.90
62555;DHT22;48610;52.144;8.624;2024-02-04T02:16:30;10.80;99.90
62555;DHT22;48610;52.144;8.624;2024-02-04T02:19:46;10.70;99.90
62555;DHT22;48610;52.144;8.624;2024-02-04T02:23:14;10.70;99.90
62555;DHT22;48610;52.144;8.624;2024-02-04T02:26:16;10.70;99.90
62555;DHT22;48610;52.144;8.624;2024-02-04T02:29:17;10.70;99.90
62555;DHT22;48610;52.144;8.624;2024-02-04T02:32:18;10.60;99.90
62555;DHT22;48610;52.144;8.624;2024-02-04T02:35:19;10.90;99.90
62555;DHT22;48610;52.144;8.624;2024-02-04T02:38:59;10.90;99.90
62555;DHT22;48610;52.144;8.624;2024-02-04T02:42:04;10.90;99.90
62555;DHT22;48610;52.144;8.624;2024-02-04T02:45:06;11.00;99.90
62555;DHT22;48610;52.144;8.624;2024-02-04T02:48:08;10.90;99.90
62555;DHT22;48610;52.144;8.624;2024-02-04T02:51:09;10.80;99.90
62555;DHT22;48610;52.144;8.624;2024-02-04T02:54:10;10.70;99.90
62555;DHT22;48610;52.144;8.624;2024-02-04T02:57:12;10.80;99.90
62555;DHT22;48610;52.144;8.624;2024-02-04T03:00:13;10.60;99.90
62555;DHT22;48610;52.144;8.624;2024-02-04T03:03:13;10.60;99.90
62555;DHT22;48610;52.144;8.624;2024-02-04T03:06:14;10.70;99.90
62555;DHT22;48610;52.144;8.624;2024-02-04T03:09:15;10.70;99.90
62555;DHT22;48610;52.144;8.624;2024-02-04T03:12:15;10.50;99.90
62555;DHT22;48610;52.144;8.624;2024-02-04T03:15:16;10.60;99.90
62555;DHT22;48610;52.144;8.624;2024-02-04T03:18:16;10.70;99.90
62555;DHT22;48610;52.144;8.624;2024-02-04T03:21:17;10.80;99.90
62555;DHT22;48610;52.144;8.624;2024-02-04T03:24:20;10.70;99.90
62555;DHT22;48610;52.144;8.624;2024-02-04T03:27:21;10.70;99.90
62555;DHT22;48610;52.144;8.624;2024-02-04T03:30:22;10.50;99.90
62555;DHT22;48610;52.144;8.624;2024-02-04T03:33:22;10.40;99.90
62555;DHT22;48610;52.144;8.624;2024-02-04T03:36:24;10.50;99.90
62555;DHT22;48610;52.144;8.624;2024-02-04T03:39:24;10.50;99.90
62555;DHT22;48610;52.144;8.624;2024-02-04T03:42:25;10.40;99.90
62555;DHT22;48610;52.144;8.624;2024-02-04T03:45:25;10.30;99.90
62555;DHT22;48610;52.144;8.624;2024-02-04T03:48:26;10.40;99.90
62555;DHT22;48610;52.144;8.624;2024-02-04T03:51:26;10.50;99.90
62555;DHT22;48610;52.144;8.624;2024-02-04T03:54:27;10.40;99.90
62555;DHT22;48610;52.144;8.624;2024-02-04T03:57:28;10.50;99.90
62555;DHT22;48610;52.144;8.624;2024-02-04T04:00:28;10.40;99.90
62555;DHT22;48610;52.144;8.624;2024-02-04T04:03:28;10.40;99.90
62555;DHT22;48610;52.144;8.624;2024-02-04T04:06:29;10.60;99.90
62555;DHT22;48610;52.144;8.624;2024-02-04T04:09:30;10.60;99.90
62555;DHT22;48610;52.144;8.624;2024-02-04T04:12:30;10.70;99.90
62555;DHT22;48610;52.144;8.624;2024-02-04T04:15:31;10.70;99.90
62555;DHT22;48610;52.144;8.624;2024-02-04T04:18:31;10.60;99.90
62555;DHT22;48610;52.144;8.624;2024-02-04T04:21:32;10.50;99.90
62555;DHT22;48610;52.144;8.624;2024-02-04T04:24:32;10.40;99.90
62555;DHT22;48610;52.144;8.624;2024-02-04T04:27:33;10.50;99.90
62555;DHT22;48610;52.144;8.624;2024-02-04T04:30:33;10.40;99.90
62555;DHT22;48610;52.144;8.624;2024-02-04T04:33:35;10.50;99.90
62555;DHT22;48610;52.144;8.624;2024-02-04T04:36:35;10.50;99.90
62555;DHT22;48610;52.144;8.624;2024-02-04T04:39:36;10.60;99.90
62555;DHT22;48610;52.144;8.624;2024-02-04T04:42:37;10.50;99.90
62555;DHT22;48610;52.144;8.624;2024-02-04T04:45:37;10.70;99.90
62555;DHT22;48610;52.144;8.624;2024-02-04T04:48:38;10.60;99.90
62555;DHT22;48610;52.144;8.624;2024-02-04T04:51:38;10.40;99.90
62555;DHT22;48610;52.144;8.624;2024-02-04T04:54:39;10.60;99.90
62555;DHT22;48610;52.144;8.624;2024-02-04T04:57:39;10.60;99.90
62555;DHT22;48610;52.144;8.624;2024-02-04T05:00:40;10.70;99.90
62555;DHT22;48610;52.144;8.624;2024-02-04T05:03:40;10.80;99.90
62555;DHT22;48610;52.144;8.624;2024-02-04T05:06:41;10.50;99.90
62555;DHT22;48610;52.144;8.624;2024-02-04T05:09:42;10.50;99.90
62555;DHT22;48610;52.144;8.624;2024-02-04T05:12:42;10.50;99.90
62555;DHT22;48610;52.144;8.624;2024-02-04T05:15:43;10.40;99.90
62555;DHT22;48610;52.144;8.624;2024-02-04T05:18:43;10.50;99.90
62555;DHT22;48610;52.144;8.624;2024-02-04T05:21:44;10.40;99.90
62555;DHT22;48610;52.144;8.624;2024-02-04T05:24:44;10.50;99.90
62555;DHT22;48610;52.144;8.624;2024-02-04T05:27:45;10.40;99.90
62555;DHT22;48610;52.144;8.624;2024-02-04T05:30:45;10.50;99.90
62555;DHT22;48610;52.144;8.624;2024-02-04T05:33:46;10.50;99.90
62555;DHT22;48610;52.144;8.624;2024-02-04T05:36:47;10.50;99.90
62555;DHT22;48610;52.144;8.624;2024-02-04T05:39:47;10.40;99.90
62555;DHT22;48610;52.144;8.624;2024-02-04T05:42:48;10.50;99.90
62555;DHT22;48610;52.144;8.624;2024-02-04T05:45:48;10.40;99.90
62555;DHT22;48610;52.144;8.624;2024-02-04T05:48:49;10.40;99.90
62555;DHT22;48610;52.144;8.624;2024-02-04T05:51:49;10.50;99.90
62555;DHT22;48610;52.144;8.624;2024-02-04T05:54:50;10.50;99.90
62555;DHT22;48610;52.144;8.624;2024-02-04T05:57:50;10.40;99.90
62555;DHT22;48610;52.144;8.624;2024-02-04T06:00:51;10.20;99.90
62555;DHT22;48610;52.144;8.624;2024-02-04T06:03:52;10.30;99.90
62555;DHT22;48610;52.144;8.624;2024-02-04T06:06:52;10.20;99.90
62555;DHT22;48610;52.144;8.624;2024-02-04T06:09:53;10.20;99.90
62555;DHT22;48610;52.144;8.624;2024-02-04T06:12:56;10.10;99.90
62555;DHT22;48610;52.144;8.624;2024-02-04T06:15:56;10.20;99.90
62555;DHT22;48610;52.144;8.624;2024-02-04T06:18:57;10.40;99.90
62555;DHT22;48610;52.144;8.624;2024-02-04T06:21:58;10.40;99.90
62555;DHT22;48610;52.144;8.624;2024-02-04T06:24:58;10.40;99.90
62555;DHT22;48610;52.144;8.624;2024-02-04T06:27:59;10.40;99.90
62555;DHT22;48610;52.144;8.624;2024-02-04T06:31:00;10.30;99.90
62555;DHT22;48610;52.144;8.624;2024-02-04T06:34:00;10.40;99.90
62555;DHT22;48610;52.144;8.624;2024-02-04T06:37:01;10.30;99.90
62555;DHT22;48610;52.144;8.624;2024-02-04T06:40:02;10.20;99.90
62555;DHT22;48610;52.144;8.624;2024-02-04T06:43:03;10.10;99.90
62555;DHT22;48610;52.144;8.624;2024-02-04T06:46:04;10.20;99.90
62555;DHT22;48610;52.144;8.624;2024-02-04T06:49:04;10.30;99.90
62555;DHT22;48610;52.144;8.624;2024-02-04T06:52:05;10.10;99.90
62555;DHT22;48610;52.144;8.624;2024-02-04T06:55:05;10.00;99.90
62555;DHT22;48610;52.144;8.624;2024-02-04T06:58:06;10.10;99.90
62555;DHT22;48610;52.144;8.624;2024-02-04T07:01:07;10.20;99.90
62555;DHT22;48610;52.144;8.624;2024-02-04T07:04:07;10.30;99.90
62555;DHT22;48610;52.144;8.624;2024-02-04T07:07:08;10.20;99.90
62555;DHT22;48610;52.144;8.624;2024-02-04T07:10:09;10.40;99.90
62555;DHT22;48610;52.144;8.624;2024-02-04T07:13:09;10.30;99.90
62555;DHT22;48610;52.144;8.624;2024-02-04T07:16:11;10.20;99.90
62555;DHT22;48610;52.144;8.624;2024-02-04T07:19:12;10.20;99.90
62555;DHT22;48610;52.144;8.624;2024-02-04T07:22:13;10.30;99.90
62555;DHT22;48610;52.144;8.624;2024-02-04T07:25:14;10.50;99.90
62555;DHT22;48610;52.144;8.624;2024-02-04T07:28:14;10.30;99.90
62555;DHT22;48610;52.144;8.624;2024-02-04T07:31:15;10.30;99.90
62555;DHT22;48610;52.144;8.624;2024-02-04T07:34:15;10.30;99.90
62555;DHT22;48610;52.144;8.624;2024-02-04T07:37:16;10.10;99.90
62555;DHT22;48610;52.144;8.624;2024-02-04T07:40:18;10.00;99.90
62555;DHT22;48610;52.144;8.624;2024-02-04T07:43:18;10.10;99.90
62555;DHT22;48610;52.144;8.624;2024-02-04T07:46:19;10.20;99.90
62555;DHT22;48610;52.144;8.624;2024-02-04T07:49:20;10.10;99.90
62555;DHT22;48610;52.144;8.624;2024-02-04T07:52:21;10.00;99.90
62555;DHT22;48610;52.144;8.624;2024-02-04T07:55:21;10.10;99.90
62555;DHT22;48610;52.144;8.624;2024-02-04T07:58:22;10.10;99.90
62555;DHT22;48610;52.144;8.624;2024-02-04T08:01:22;10.10;99.90
62555;DHT22;48610;52.144;8.624;2024-02-04T08:04:24;10.10;99.90
62555;DHT22;48610;52.144;8.624;2024-02-04T08:07:24;10.10;99.90
62555;DHT22;48610;52.144;8.624;2024-02-04T08:10:25;10.00;99.90
62555;DHT22;48610;52.144;8.624;2024-02-04T08:13:25;10.00;99.90
62555;DHT22;48610;52.144;8.624;2024-02-04T08:16:26;9.90;99.90
62555;DHT22;48610;52.144;8.624;2024-02-04T08:19:26;9.80;99.90
62555;DHT22;48610;52.144;8.624;2024-02-04T08:22:27;9.90;99.90
62555;DHT22;48610;52.144;8.624;2024-02-04T08:25:27;10.00;99.90
62555;DHT22;48610;52.144;8.624;2024-02-04T08:28:28;10.00;99.90
62555;DHT22;48610;52.144;8.624;2024-02-04T08:31:32;10.00;99.90
62555;DHT22;48610;52.144;8.624;2024-02-04T08:34:34;10.00;99.90
62555;DHT22;48610;52.144;8.624;2024-02-04T08:37:34;10.00;99.90
62555;DHT22;48610;52.144;8.624;2024-02-04T08:40:36;10.00;99.90
62555;DHT22;48610;52.144;8.624;2024-02-04T08:43:36;10.20;99.90
62555;DHT22;48610;52.144;8.624;2024-02-04T08:46:37;10.30;99.90
62555;DHT22;48610;52.144;8.624;2024-02-04T08:49:38;10.30;99.90
62555;DHT22;48610;52.144;8.624;2024-02-04T08:52:38;10.10;99.90
62555;DHT22;48610;52.144;8.624;2024-02-04T08:55:39;10.10;99.90
62555;DHT22;48610;52.144;8.624;2024-02-04T08:58:39;10.00;99.90
62555;DHT22;48610;52.144;8.624;2024-02-04T09:01:40;10.10;99.90
62555;DHT22;48610;52.144;8.624;2024-02-04T09:04:41;10.10;99.90
62555;DHT22;48610;52.144;8.624;2024-02-04T09:07:42;10.30;99.90
62555;DHT22;48610;52.144;8.624;2024-02-04T09:10:42;10.50;99.90
62555;DHT22;48610;52.144;8.624;2024-02-04T09:13:43;10.50;99.90
62555;DHT22;48610;52.144;8.624;2024-02-04T09:16:43;10.50;99.90
62555;DHT22;48610;52.144;8.624;2024-02-04T09:19:44;10.40;99.90
62555;DHT22;48610;52.144;8.624;2024-02-04T09:22:44;10.30;99.90
62555;DHT22;48610;52.144;8.624;2024-02-04T09:25:45;10.40;99.90
62555;DHT22;48610;52.144;8.624;2024-02-04T09:28:46;10.30;99.90
62555;DHT22;48610;52.144;8.624;2024-02-04T09:31:46;10.30;99.90
62555;DHT22;48610;52.144;8.624;2024-02-04T09:34:47;10.40;99.90
62555;DHT22;48610;52.144;8.624;2024-02-04T09:37:47;10.60;99.90
62555;DHT22;48610;52.144;8.624;2024-02-04T09:40:48;10.50;99.90
62555;DHT22;48610;52.144;8.624;2024-02-04T09:43:50;10.40;99.90
62555;DHT22;48610;52.144;8.624;2024-02-04T09:46:51;10.30;99.90
62555;DHT22;48610;52.144;8.624;2024-02-04T09:49:53;10.50;99.90
62555;DHT22;48610;52.144;8.624;2024-02-04T09:52:59;10.60;99.90
62555;DHT22;48610;52.144;8.624;2024-02-04T09:56:03;10.60;99.90
62555;DHT22;48610;52.144;8.624;2024-02-04T09:59:06;10.60;99.90
62555;DHT22;48610;52.144;8.624;2024-02-04T10:02:07;10.60;99.90
62555;DHT22;48610;52.144;8.624;2024-02-04T10:05:08;10.60;99.90
62555;DHT22;48610;52.144;8.624;2024-02-04T10:08:10;10.30;99.90
62555;DHT22;48610;52.144;8.624;2024-02-04T10:11:11;10.40;99.90
62555;DHT22;48610;52.144;8.624;2024-02-04T10:14:12;10.60;99.90
62555;DHT22;48610;52.144;8.624;2024-02-04T10:17:15;10.70;99.90
62555;DHT22;48610;52.144;8.624;2024-02-04T10:20:16;10.60;99.90
62555;DHT22;48610;52.144;8.624;2024-02-04T10:23:16;10.50;99.90
62555;DHT22;48610;52.144;8.624;2024-02-04T10:26:17;10.60;99.90
62555;DHT22;48610;52.144;8.624;2024-02-04T10:29:21;10.50;99.90
62555;DHT22;48610;52.144;8.624;2024-02-04T10:32:22;10.60;99.90
62555;DHT22;48610;52.144;8.624;2024-02-04T10:35:23;10.60;99.90
62555;DHT22;48610;52.144;8.624;2024-02-04T10:38:24;10.50;99.90
62555;DHT22;48610;52.144;8.624;2024-02-04T10:41:29;10.50;99.90
62555;DHT22;48610;52.144;8.624;2024-02-04T10:44:35;10.60;99.90
62555;DHT22;48610;52.144;8.624;2024-02-04T10:47:38;10.70;99.90
62555;DHT22;48610;52.144;8.624;2024-02-04T10:50:39;10.60;99.90
62555;DHT22;48610;52.144;8.624;2024-02-04T10:53:44;10.50;99.90
62555;DHT22;48610;52.144;8.624;2024-02-04T10:56:46;10.60;99.90
62555;DHT22;48610;52.144;8.624;2024-02-04T10:59:51;10.60;99.90
62555;DHT22;48610;52.144;8.624;2024-02-04T11:02:52;10.50;99.90
62555;DHT22;48610;52.144;8.624;2024-02-04T11:05:54;10.50;99.90
62555;DHT22;48610;52.144;8.624;2024-02-04T11:08:55;10.60;99.90
62555;DHT22;48610;52.144;8.624;2024-02-04T11:11:59;10.70;99.90
62555;DHT22;48610;52.144;8.624;2024-02-04T11:15:04;10.50;99.90
62555;DHT22;48610;52.144;8.624;2024-02-04T11:24:51;10.60;99.90
62555;DHT22;48610;52.144;8.624;2024-02-04T11:27:54;10.70;99.90
62555;DHT22;48610;52.144;8.624;2024-02-04T11:30:55;10.80;99.90
62555;DHT22;48610;52.144;8.624;2024-02-04T11:33:56;10.80;99.90
62555;DHT22;48610;52.144;8.624;2024-02-04T11:36:57;10.80;99.90
62555;DHT22;48610;52.144;8.624;2024-02-04T11:39:59;10.80;99.90
62555;DHT22;48610;52.144;8.624;2024-02-04T11:43:26;10.70;99.90
62555;DHT22;48610;52.144;8.624;2024-02-04T11:46:32;10.90;99.90
62555;DHT22;48610;52.144;8.624;2024-02-04T11:49:33;10.90;99.90
62555;DHT22;48610;52.144;8.624;2024-02-04T11:52:34;10.90;99.90
62555;DHT22;48610;52.144;8.624;2024-02-04T11:55:35;10.80;99.90
62555;DHT22;48610;52.144;8.624;2024-02-04T11:58:37;10.80;99.90
62555;DHT22;48610;52.144;8.624;2024-02-04T12:01:38;10.80;99.90
62555;DHT22;48610;52.144;8.624;2024-02-04T12:04:39;10.90;99.90
62555;DHT22;48610;52.144;8.624;2024-02-04T12:07:40;10.80;99.90
62555;DHT22;48610;52.144;8.624;2024-02-04T12:10:41;10.70;99.90
62555;DHT22;48610;52.144;8.624;2024-02-04T12:13:44;10.80;99.90
62555;DHT22;48610;52.144;8.624;2024-02-04T12:16:45;10.80;99.90
62555;DHT22;48610;52.144;8.624;2024-02-04T12:19:46;11.00;99.90
62555;DHT22;48610;52.144;8.624;2024-02-04T12:22:46;10.80;99.90
62555;DHT22;48610;52.144;8.624;2024-02-04T12:25:49;10.80;99.90
62555;DHT22;48610;52.144;8.624;2024-02-04T12:28:52;11.00;99.90
62555;DHT22;48610;52.144;8.624;2024-02-04T12:32:00;10.90;99.90
62555;DHT22;48610;52.144;8.624;2024-02-04T12:35:01;10.80;99.90
62555;DHT22;48610;52.144;8.624;2024-02-04T12:38:03;10.90;99.90
62555;DHT22;48610;52.144;8.624;2024-02-04T12:41:03;10.90;99.90
62555;DHT22;48610;52.144;8.624;2024-02-04T12:44:05;10.80;99.90
62555;DHT22;48610;52.144;8.624;2024-02-04T12:47:06;10.90;99.90
62555;DHT22;48610;52.144;8.624;2024-02-04T12:50:07;11.20;99.90
62555;DHT22;48610;52.144;8.624;2024-02-04T12:53:09;11.30;99.90
62555;DHT22;48610;52.144;8.624;2024-02-04T12:56:13;11.00;99.90
62555;DHT22;48610;52.144;8.624;2024-02-04T12:59:33;10.90;99.90
62555;DHT22;48610;52.144;8.624;2024-02-04T13:02:34;11.10;99.90
62555;DHT22;48610;52.144;8.624;2024-02-04T13:05:37;11.10;99.90
62555;DHT22;48610;52.144;8.624;2024-02-04T13:08:37;11.00;99.90
62555;DHT22;48610;52.144;8.624;2024-02-04T13:11:38;11.00;99.90
62555;DHT22;48610;52.144;8.624;2024-02-04T13:14:39;11.00;99.90
62555;DHT22;48610;52.144;8.624;2024-02-04T13:17:39;10.90;99.90
62555;DHT22;48610;52.144;8.624;2024-02-04T13:20:40;10.80;99.90
62555;DHT22;48610;52.144;8.624;2024-02-04T13:23:42;10.80;99.90
62555;DHT22;48610;52.144;8.624;2024-02-04T13:26:42;10.70;99.90
62555;DHT22;48610;52.144;8.624;2024-02-04T13:29:43;10.60;99.90
62555;DHT22;48610;52.144;8.624;2024-02-04T13:32:43;10.70;99.90
62555;DHT22;48610;52.144;8.624;2024-02-04T13:35:44;10.60;99.90
62555;DHT22;48610;52.144;8.624;2024-02-04T13:38:45;10.70;99.90
62555;DHT22;48610;52.144;8.624;2024-02-04T13:41:47;10.50;99.90
62555;DHT22;48610;52.144;8.624;2024-02-04T13:44:47;10.50;99.90
62555;DHT22;48610;52.144;8.624;2024-02-04T13:47:48;10.50;99.90
62555;DHT22;48610;52.144;8.624;2024-02-04T13:50:48;10.50;99.90
62555;DHT22;48610;52.144;8.624;2024-02-04T13:53:49;10.80;99.90
62555;DHT22;48610;52.144;8.624;2024-02-04T13:56:50;10.80;99.90
62555;DHT22;48610;52.144;8.624;2024-02-04T13:59:50;10.90;99.90
62555;DHT22;48610;52.144;8.624;2024-02-04T14:02:51;10.80;99.90
62555;DHT22;48610;52.144;8.624;2024-02-04T14:05:52;10.70;99.90
62555;DHT22;48610;52.144;8.624;2024-02-04T14:08:52;10.80;99.90
62555;DHT22;48610;52.144;8.624;2024-02-04T14:11:53;10.80;99.90
62555;DHT22;48610;52.144;8.624;2024-02-04T14:14:57;11.00;99.90
62555;DHT22;48610;52.144;8.624;2024-02-04T14:17:59;10.90;99.90
62555;DHT22;48610;52.144;8.624;2024-02-04T14:20:59;10.70;99.90
62555;DHT22;48610;52.144;8.624;2024-02-04T14:24:00;10.80;99.90
62555;DHT22;48610;52.144;8.624;2024-02-04T14:27:01;10.70;99.90
62555;DHT22;48610;52.144;8.624;2024-02-04T14:30:02;10.70;99.90
62555;DHT22;48610;52.144;8.624;2024-02-04T14:33:03;10.50;99.90
62555;DHT22;48610;52.144;8.624;2024-02-04T14:36:05;10.40;99.90
62555;DHT22;48610;52.144;8.624;2024-02-04T14:39:06;10.60;99.90
62555;DHT22;48610;52.144;8.624;2024-02-04T14:42:09;10.60;99.90
62555;DHT22;48610;52.144;8.624;2024-02-04T14:45:10;10.60;99.90
62555;DHT22;48610;52.144;8.624;2024-02-04T14:48:11;10.60;99.90
62555;DHT22;48610;52.144;8.624;2024-02-04T14:51:12;10.70;99.90
62555;DHT22;48610;52.144;8.624;2024-02-04T14:54:13;10.50;99.90
62555;DHT22;48610;52.144;8.624;2024-02-04T14:57:13;10.50;99.90
62555;DHT22;48610;52.144;8.624;2024-02-04T15:00:14;10.60;99.90
62555;DHT22;48610;52.144;8.624;2024-02-04T15:03:16;10.60;99.90
62555;DHT22;48610;52.144;8.624;2024-02-04T15:06:16;10.80;99.90
62555;DHT22;48610;52.144;8.624;2024-02-04T15:09:17;10.80;99.90
62555;DHT22;48610;52.144;8.624;2024-02-04T15:12:18;10.70;99.90
62555;DHT22;48610;52.144;8.624;2024-02-04T15:15:19;10.70;99.90
62555;DHT22;48610;52.144;8.624;2024-02-04T15:18:20;10.90;99.90
62555;DHT22;48610;52.144;8.624;2024-02-04T15:21:21;10.80;99.90
62555;DHT22;48610;52.144;8.624;2024-02-04T15:24:24;10.80;99.90
62555;DHT22;48610;52.144;8.624;2024-02-04T15:27:27;10.80;99.90
62555;DHT22;48610;52.144;8.624;2024-02-04T15:30:28;10.60;99.90
62555;DHT22;48610;52.144;8.624;2024-02-04T15:33:30;10.60;99.90
62555;DHT22;48610;52.144;8.624;2024-02-04T15:36:30;10.70;99.90
62555;DHT22;48610;52.144;8.624;2024-02-04T15:39:32;10.70;99.90
62555;DHT22;48610;52.144;8.624;2024-02-04T15:42:34;10.70;99.90
62555;DHT22;48610;52.144;8.624;2024-02-04T15:45:35;10.60;99.90
62555;DHT22;48610;52.144;8.624;2024-02-04T15:48:39;10.50;99.90
62555;DHT22;48610;52.144;8.624;2024-02-04T15:51:41;10.60;99.90
62555;DHT22;48610;52.144;8.624;2024-02-04T15:54:41;10.50;99.90
62555;DHT22;48610;52.144;8.624;2024-02-04T15:57:50;10.40;99.90
62555;DHT22;48610;52.144;8.624;2024-02-04T16:00:51;10.40;99.90
62555;DHT22;48610;52.144;8.624;2024-02-04T16:03:52;10.60;99.90
62555;DHT22;48610;52.144;8.624;2024-02-04T16:06:55;10.50;99.90
62555;DHT22;48610;52.144;8.624;2024-02-04T16:09:55;10.30;99.90
62555;DHT22;48610;52.144;8.624;2024-02-04T16:12:58;10.30;99.90
62555;DHT22;48610;52.144;8.624;2024-02-04T16:16:01;10.50;99.90
62555;DHT22;48610;52.144;8.624;2024-02-04T16:19:03;10.50;99.90
62555;DHT22;48610;52.144;8.624;2024-02-04T16:22:05;10.30;99.90
62555;DHT22;48610;52.144;8.624;2024-02-04T16:25:06;10.30;99.90
62555;DHT22;48610;52.144;8.624;2024-02-04T16:28:06;10.30;99.90
62555;DHT22;48610;52.144;8.624;2024-02-04T16:31:07;10.20;99.90
62555;DHT22;48610;52.144;8.624;2024-02-04T16:34:08;10.20;99.90
62555;DHT22;48610;52.144;8.624;2024-02-04T16:37:08;10.30;99.90
62555;DHT22;48610;52.144;8.624;2024-02-04T16:40:10;10.40;99.90
62555;DHT22;48610;52.144;8.624;2024-02-04T16:43:12;10.40;99.90
62555;DHT22;48610;52.144;8.624;2024-02-04T16:46:13;10.40;99.90
62555;DHT22;48610;52.144;8.624;2024-02-04T16:49:14;10.40;99.90
62555;DHT22;48610;52.144;8.624;2024-02-04T16:52:14;10.30;99.90
62555;DHT22;48610;52.144;8.624;2024-02-04T16:55:15;10.40;99.90
62555;DHT22;48610;52.144;8.624;2024-02-04T16:58:16;10.40;99.90
62555;DHT22;48610;52.144;8.624;2024-02-04T17:01:16;10.40;99.90
62555;DHT22;48610;52.144;8.624;2024-02-04T17:04:18;10.40;99.90
62555;DHT22;48610;52.144;8.624;2024-02-04T17:07:19;10.40;99.90
62555;DHT22;48610;52.144;8.624;2024-02-04T17:10:20;10.50;99.90
62555;DHT22;48610;52.144;8.624;2024-02-04T17:13:22;10.50;99.90
62555;DHT22;48610;52.144;8.624;2024-02-04T17:23:13;10.40;99.90
62555;DHT22;48610;52.144;8.624;2024-02-04T17:26:15;10.50;99.90
62555;DHT22;48610;52.144;8.624;2024-02-04T17:29:21;10.60;99.90
62555;DHT22;48610;52.144;8.624;2024-02-04T17:32:23;10.60;99.90
62555;DHT22;48610;52.144;8.624;2024-02-04T17:35:25;10.60;99.90
62555;DHT22;48610;52.144;8.624;2024-02-04T17:38:29;10.60;99.90
62555;DHT22;48610;52.144;8.624;2024-02-04T17:41:29;10.50;99.90
62555;DHT22;48610;52.144;8.624;2024-02-04T17:44:30;10.60;99.90
62555;DHT22;48610;52.144;8.624;2024-02-04T17:47:31;10.60;99.90
62555;DHT22;48610;52.144;8.624;2024-02-04T17:50:31;10.60;99.90
62555;DHT22;48610;52.144;8.624;2024-02-04T17:53:32;10.70;99.90
62555;DHT22;48610;52.144;8.624;2024-02-04T17:56:32;10.60;99.90
62555;DHT22;48610;52.144;8.624;2024-02-04T17:59:33;10.60;99.90
62555;DHT22;48610;52.144;8.624;2024-02-04T18:02:35;10.60;99.90
62555;DHT22;48610;52.144;8.624;2024-02-04T18:05:36;10.50;99.90
62555;DHT22;48610;52.144;8.624;2024-02-04T18:08:42;10.50;99.90
62555;DHT22;48610;52.144;8.624;2024-02-04T18:11:43;10.60;99.90
62555;DHT22;48610;52.144;8.624;2024-02-04T18:14:44;10.60;99.90
62555;DHT22;48610;52.144;8.624;2024-02-04T18:17:45;10.70;99.90
62555;DHT22;48610;52.144;8.624;2024-02-04T18:20:48;10.60;99.90
62555;DHT22;48610;52.144;8.624;2024-02-04T18:23:50;10.50;99.90
62555;DHT22;48610;52.144;8.624;2024-02-04T18:26:52;10.60;99.90
62555;DHT22;48610;52.144;8.624;2024-02-04T18:29:52;10.60;99.90
62555;DHT22;48610;52.144;8.624;2024-02-04T18:32:54;10.70;99.90
62555;DHT22;48610;52.144;8.624;2024-02-04T18:35:55;10.80;99.90
62555;DHT22;48610;52.144;8.624;2024-02-04T18:38:57;10.70;99.90
62555;DHT22;48610;52.144;8.624;2024-02-04T18:41:57;10.80;99.90
62555;DHT22;48610;52.144;8.624;2024-02-04T18:44:58;10.70;99.90
62555;DHT22;48610;52.144;8.624;2024-02-04T18:47:58;10.80;99.90
62555;DHT22;48610;52.144;8.624;2024-02-04T18:51:02;10.70;99.90
62555;DHT22;48610;52.144;8.624;2024-02-04T18:54:02;10.90;99.90
62555;DHT22;48610;52.144;8.624;2024-02-04T18:57:04;10.70;99.90
62555;DHT22;48610;52.144;8.624;2024-02-04T19:00:06;10.70;99.90
62555;DHT22;48610;52.144;8.624;2024-02-04T19:03:08;10.80;99.90
62555;DHT22;48610;52.144;8.624;2024-02-04T19:06:09;11.00;99.90
62555;DHT22;48610;52.144;8.624;2024-02-04T19:09:09;10.90;99.90
62555;DHT22;48610;52.144;8.624;2024-02-04T19:12:12;10.90;99.90
62555;DHT22;48610;52.144;8.624;2024-02-04T19:15:13;10.90;99.90
62555;DHT22;48610;52.144;8.624;2024-02-04T19:18:14;10.90;99.90